Time;durP1;ratioP1;P1;durP2;ratioP2;P2;SDS_P1;SDS_P2;PMS_P1;PMS_P2;Temp;Humidity;BMP_temperature;BMP_pressure;BME280_temperature;BME280_humidity;BME280_pressure;Samples;Min_cycle;Max_cycle;Signal;HPM_P1;HPM_P2
2023/09/09 00:00:39;;;;;;;;;;;18.30;99.90;;;;;;4874854;29;20572;-77
2023/09/09 00:03:06;;;;;;;2.95;2.38;;;18.30;99.90;;;;;;4873684;29;19946;-77
2023/09/09 00:05:35;;;;;;;2.50;2.30;;;18.30;99.90;;;;;;4876230;29;20076;-77
2023/09/09 00:08:01;;;;;;;2.50;2.17;;;18.20;99.90;;;;;;4867063;29;20503;-77
2023/09/09 00:10:29;;;;;;;;;;;18.20;99.90;;;;;;4877613;29;20049;-77
2023/09/09 00:12:56;;;;;;;2.50;2.22;;;18.20;99.90;;;;;;4876825;29;19931;-77
2023/09/09 00:15:22;;;;;;;2.88;2.30;;;18.20;99.90;;;;;;4876788;29;20045;-77
2023/09/09 00:17:48;;;;;;;2.35;2.15;;;18.10;99.90;;;;;;4876508;29;20069;-77
2023/09/09 00:20:14;;;;;;;;;;;18.10;99.90;;;;;;4877322;29;20055;-77
2023/09/09 00:22:40;;;;;;;2.38;2.05;;;18.10;99.90;;;;;;4876634;29;19976;-77
2023/09/09 00:25:06;;;;;;;;;;;18.00;99.90;;;;;;4877220;29;20049;-77
2023/09/09 00:27:32;;;;;;;2.78;2.47;;;18.10;99.90;;;;;;4876361;29;19927;-77
2023/09/09 00:29:57;;;;;;;;;;;18.10;99.90;;;;;;4876161;29;20056;-78
2023/09/09 00:32:23;;;;;;;2.40;2.20;;;18.10;99.90;;;;;;4876918;29;19927;-78
2023/09/09 00:34:49;;;;;;;;;;;18.00;99.90;;;;;;4875366;29;20924;-78
2023/09/09 00:37:15;;;;;;;2.20;2.00;;;18.00;99.90;;;;;;4875187;29;19975;-78
2023/09/09 00:39:40;;;;;;;;;;;18.00;99.90;;;;;;4876407;29;20051;-78
2023/09/09 00:42:06;;;;;;;3.65;2.30;;;18.00;99.90;;;;;;4874768;29;19923;-78
2023/09/09 00:44:31;;;;;;;;;;;18.00;99.90;;;;;;4875393;29;20052;-78
2023/09/09 00:46:58;;;;;;;4.43;2.13;;;18.00;99.90;;;;;;4876604;29;19995;-78
2023/09/09 00:49:24;;;;;;;3.15;2.60;;;17.90;99.90;;;;;;4860058;29;20097;-78
2023/09/09 00:51:50;;;;;;;;;;;17.90;99.90;;;;;;4875430;29;20789;-78
2023/09/09 00:54:15;;;;;;;3.15;2.50;;;17.80;99.90;;;;;;4859466;29;19939;-77
2023/09/09 00:56:41;;;;;;;;;;;17.90;99.90;;;;;;4873410;29;20116;-77
2023/09/09 00:59:07;;;;;;;2.65;2.28;;;17.90;99.90;;;;;;4875358;29;20450;-77
2023/09/09 01:01:32;;;;;;;;;;;17.80;99.90;;;;;;4877048;29;20075;-78
2023/09/09 01:03:59;;;;;;;2.80;2.30;;;17.80;99.90;;;;;;4856074;29;19927;-77
2023/09/09 01:06:25;;;;;;;2.92;2.35;;;17.80;99.90;;;;;;4855501;29;20569;-77
2023/09/09 01:08:51;;;;;;;;;;;17.80;99.90;;;;;;4843100;29;20127;-77
2023/09/09 01:11:16;;;;;;;2.83;2.53;;;17.80;99.90;;;;;;4872114;29;20034;-77
2023/09/09 01:13:42;;;;;;;;;;;17.80;99.90;;;;;;4871900;29;20072;-77
2023/09/09 01:16:08;;;;;;;2.38;2.10;;;17.80;99.90;;;;;;4877549;29;20375;-77
2023/09/09 01:18:35;;;;;;;2.80;2.40;;;17.80;99.90;;;;;;4859088;29;20151;-77
2023/09/09 01:21:10;;;;;;;2.13;1.90;;;17.80;99.90;;;;;;4875718;29;20052;-77
2023/09/09 01:23:37;;;;;;;2.58;2.33;;;17.80;99.90;;;;;;4874543;29;20053;-77
2023/09/09 01:26:02;;;;;;;2.40;2.20;;;17.80;99.90;;;;;;4874750;29;20052;-77
2023/09/09 01:28:28;;;;;;;;;;;17.80;99.90;;;;;;4859333;29;20064;-77
2023/09/09 01:30:54;;;;;;;3.15;2.30;;;17.80;99.90;;;;;;4874538;29;20014;-77
2023/09/09 01:33:19;;;;;;;;;;;17.80;99.90;;;;;;4876118;29;20556;-77
2023/09/09 01:35:48;;;;;;;2.47;2.28;;;17.70;99.90;;;;;;4874987;29;19923;-77
2023/09/09 01:38:14;;;;;;;2.53;2.33;;;17.70;99.90;;;;;;4875577;29;20548;-77
2023/09/09 01:40:40;;;;;;;;;;;17.60;99.90;;;;;;4845350;29;20057;-77
2023/09/09 01:43:05;;;;;;;2.55;2.30;;;17.60;99.90;;;;;;4875756;29;19960;-78
2023/09/09 01:45:31;;;;;;;;;;;17.60;99.90;;;;;;4876269;29;20125;-77
2023/09/09 01:47:58;;;;;;;2.20;2.00;;;17.60;99.90;;;;;;4875506;29;20291;-77
2023/09/09 01:50:23;;;;;;;2.33;2.13;;;17.50;99.90;;;;;;4875556;29;20045;-77
2023/09/09 01:52:49;;;;;;;;;;;17.50;99.90;;;;;;4876071;29;20058;-77
2023/09/09 01:55:15;;;;;;;2.65;2.35;;;17.50;99.90;;;;;;4875686;29;20399;-76
2023/09/09 01:57:40;;;;;;;;;;;17.50;99.90;;;;;;4875790;29;20052;-77
2023/09/09 02:00:07;;;;;;;2.67;2.25;;;17.50;99.90;;;;;;4875409;29;19963;-77
2023/09/09 02:02:33;;;;;;;2.40;2.20;;;17.50;99.90;;;;;;4872910;29;20064;-77
2023/09/09 02:04:59;;;;;;;2.60;2.25;;;17.50;99.90;;;;;;4859168;29;20434;-77
2023/09/09 02:07:24;;;;;;;;;;;17.50;99.90;;;;;;4874935;29;20109;-77
2023/09/09 02:09:50;;;;;;;2.58;2.20;;;17.40;99.90;;;;;;4873340;29;19927;-77
2023/09/09 02:12:15;;;;;;;;;;;17.40;99.90;;;;;;4877307;29;20489;-77
2023/09/09 02:14:41;;;;;;;2.70;2.38;;;17.40;99.90;;;;;;4878574;29;20375;-77
2023/09/09 02:17:08;;;;;;;2.88;2.60;;;17.40;99.90;;;;;;4878676;29;20049;-77
2023/09/09 02:19:33;;;;;;;2.90;2.42;;;17.40;99.90;;;;;;4878735;29;20056;-77
2023/09/09 02:21:59;;;;;;;;;;;17.40;99.90;;;;;;4879039;29;20057;-77
2023/09/09 02:24:25;;;;;;;2.95;2.22;;;17.40;99.90;;;;;;4863762;29;19967;-77
2023/09/09 02:26:50;;;;;;;;;;;17.40;99.90;;;;;;4864079;29;20049;-77
2023/09/09 02:29:16;;;;;;;2.47;2.17;;;17.40;99.90;;;;;;4888280;29;20050;-77
2023/09/09 02:31:42;;;;;;;2.58;2.35;;;17.40;99.90;;;;;;4877034;29;20049;-77
2023/09/09 02:34:08;;;;;;;;;;;17.40;99.90;;;;;;4877588;29;20044;-77
2023/09/09 02:36:33;;;;;;;3.08;2.22;;;17.30;99.90;;;;;;4876960;29;20382;-77
2023/09/09 02:38:59;;;;;;;;;;;17.30;99.90;;;;;;4863624;29;20131;-77
2023/09/09 02:41:25;;;;;;;2.55;2.25;;;17.30;99.90;;;;;;4876637;29;19919;-77
2023/09/09 02:43:50;;;;;;;;;;;17.30;99.90;;;;;;4877588;29;20184;-77
2023/09/09 02:46:16;;;;;;;2.60;2.25;;;17.30;99.90;;;;;;4874671;29;19951;-77
2023/09/09 02:48:41;;;;;;;;;;;17.30;99.90;;;;;;4875261;29;20063;-77
2023/09/09 02:51:07;;;;;;;2.67;2.40;;;17.20;99.90;;;;;;4877286;29;19995;-78
2023/09/09 02:53:32;;;;;;;;;;;17.20;99.90;;;;;;4863202;29;20549;-78
2023/09/09 02:55:58;;;;;;;2.67;2.40;;;17.20;99.90;;;;;;4861767;29;20656;-78
2023/09/09 02:58:24;;;;;;;2.70;2.30;;;17.20;99.90;;;;;;4878195;29;20047;-78
2023/09/09 03:00:49;;;;;;;;;;;17.20;99.90;;;;;;4862982;29;20045;-78
2023/09/09 03:03:15;;;;;;;2.30;2.10;;;17.10;99.90;;;;;;4875992;29;19919;-78
2023/09/09 03:05:41;;;;;;;;;;;17.20;99.90;;;;;;4863098;29;20084;-78
2023/09/09 03:08:06;;;;;;;2.38;2.15;;;17.10;99.90;;;;;;4875752;29;20006;-78
2023/09/09 03:10:32;;;;;;;;;;;17.20;99.90;;;;;;4875566;29;20049;-78
2023/09/09 03:12:58;;;;;;;3.15;2.50;;;17.20;99.90;;;;;;4861321;29;20378;-78
2023/09/09 03:15:24;;;;;;;;;;;17.10;99.90;;;;;;4877703;29;20049;-78
2023/09/09 03:17:50;;;;;;;2.47;2.28;;;17.10;99.90;;;;;;4873077;29;20311;-78
2023/09/09 03:20:16;;;;;;;;;;;17.10;99.90;;;;;;4878522;29;20059;-78
2023/09/09 03:22:41;;;;;;;2.80;2.50;;;17.10;99.90;;;;;;4877730;29;19920;-78
2023/09/09 03:25:07;;;;;;;;;;;17.10;99.90;;;;;;4852621;29;20386;-78
2023/09/09 03:27:33;;;;;;;2.83;2.50;;;17.10;99.90;;;;;;4868487;29;19927;-78
2023/09/09 03:29:59;;;;;;;;;;;17.10;99.90;;;;;;4859905;29;20156;-78
2023/09/09 03:32:25;;;;;;;2.65;2.35;;;17.10;99.90;;;;;;4871950;29;19971;-78
2023/09/09 03:34:52;;;;;;;3.00;2.50;;;17.10;99.90;;;;;;4863771;29;20674;-77
2023/09/09 03:37:18;;;;;;;2.92;2.63;;;17.10;99.90;;;;;;4875891;29;20489;-78
2023/09/09 03:39:43;;;;;;;;;;;17.10;99.90;;;;;;4862067;29;20064;-78
2023/09/09 03:42:09;;;;;;;2.95;2.40;;;17.10;99.90;;;;;;4877892;29;19919;-78
2023/09/09 03:44:35;;;;;;;;;;;17.00;99.90;;;;;;4876569;29;20504;-78
2023/09/09 03:47:00;;;;;;;3.22;2.38;;;17.00;99.90;;;;;;4874349;29;20034;-78
2023/09/09 03:49:26;;;;;;;;;;;17.00;99.90;;;;;;4862321;29;20085;-78
2023/09/09 03:51:51;;;;;;;2.55;2.17;;;17.00;99.90;;;;;;4875518;29;19923;-78
2023/09/09 03:54:17;;;;;;;3.17;2.25;;;17.00;99.90;;;;;;4876844;29;20049;-78
2023/09/09 03:56:43;;;;;;;2.20;2.00;;;17.00;99.90;;;;;;4877018;29;20060;-78
2023/09/09 03:59:09;;;;;;;2.28;2.08;;;17.00;99.90;;;;;;4875960;29;20381;-78
2023/09/09 04:01:35;;;;;;;;;;;17.00;99.90;;;;;;4842329;29;20136;-77
2023/09/09 04:04:01;;;;;;;2.42;2.00;;;17.00;99.90;;;;;;4873709;29;19923;-77
2023/09/09 04:06:27;;;;;;;;;;;17.00;99.90;;;;;;4874153;29;20044;-78
2023/09/09 04:08:56;;;;;;;2.63;2.38;;;17.00;99.90;;;;;;4860530;29;19931;-78
2023/09/09 04:11:22;;;;;;;2.53;2.13;;;16.90;99.90;;;;;;4876220;29;20049;-78
2023/09/09 04:13:48;;;;;;;2.35;2.05;;;16.90;99.90;;;;;;4875839;29;20044;-77
2023/09/09 04:16:13;;;;;;;;;;;16.90;99.90;;;;;;4876210;29;20115;-78
2023/09/09 04:18:39;;;;;;;2.95;2.40;;;16.90;99.90;;;;;;4861241;29;19924;-78
2023/09/09 04:21:05;;;;;;;;;;;16.90;99.90;;;;;;4861300;29;20041;-78
2023/09/09 04:23:31;;;;;;;2.55;1.95;;;16.90;99.90;;;;;;4877627;29;20387;-78
2023/09/09 04:25:56;;;;;;;2.28;2.08;;;16.90;99.90;;;;;;4875871;29;20128;-78
2023/09/09 04:28:26;;;;;;;2.10;1.90;;;16.80;99.90;;;;;;4861215;29;20045;-78
2023/09/09 04:30:52;;;;;;;2.33;2.00;;;16.80;99.90;;;;;;4873192;29;20048;-78
2023/09/09 04:33:17;;;;;;;;;;;16.80;99.90;;;;;;4875797;29;20048;-78
2023/09/09 04:35:43;;;;;;;2.53;2.10;;;16.90;99.90;;;;;;4874057;29;19992;-78
2023/09/09 04:38:09;;;;;;;;;;;16.90;99.90;;;;;;4876865;29;20045;-78
2023/09/09 04:40:37;;;;;;;2.92;2.47;;;16.90;99.90;;;;;;4875479;29;19920;-77
2023/09/09 04:43:03;;;;;;;2.75;2.40;;;16.90;99.90;;;;;;4874996;29;20398;-78
2023/09/09 04:45:29;;;;;;;;;;;16.80;99.90;;;;;;4876957;29;20089;-78
2023/09/09 04:47:54;;;;;;;2.30;2.10;;;16.90;99.90;;;;;;4874913;29;19956;-77
2023/09/09 04:50:20;;;;;;;;;;;16.90;99.90;;;;;;4876169;29;20041;-77
2023/09/09 04:52:47;;;;;;;2.80;2.15;;;16.90;99.90;;;;;;4873936;29;19946;-77
2023/09/09 04:55:14;;;;;;;2.33;2.13;;;16.90;99.90;;;;;;4874775;29;20132;-77
2023/09/09 04:57:40;;;;;;;2.25;2.00;;;16.90;99.90;;;;;;4875864;29;20060;-77
2023/09/09 05:00:09;;;;;;;2.13;1.90;;;16.90;99.90;;;;;;4873355;29;20057;-77
2023/09/09 05:02:37;;;;;;;2.67;2.13;;;17.00;99.90;;;;;;4872863;29;20061;-77
2023/09/09 05:05:05;;;;;;;2.30;1.98;;;17.00;99.90;;;;;;4860155;29;20732;-77
2023/09/09 05:07:36;;;;;;;2.80;2.40;;;16.90;99.90;;;;;;4854765;29;20047;-77
2023/09/09 05:10:05;;;;;;;3.13;2.75;;;16.90;99.90;;;;;;4875681;29;20041;-78
2023/09/09 05:12:38;;;;;;;2.60;2.30;;;16.90;99.90;;;;;;4874399;29;20061;-78
2023/09/09 05:15:10;;;;;;;2.75;2.45;;;16.90;99.90;;;;;;4876185;29;20431;-78
2023/09/09 05:17:35;;;;;;;2.92;2.60;;;16.90;99.90;;;;;;4875563;29;20540;-78
2023/09/09 05:20:02;;;;;;;;;;;16.90;99.90;;;;;;4859648;29;20148;-78
2023/09/09 05:22:28;;;;;;;2.83;2.30;;;16.90;99.90;;;;;;4873269;29;19923;-78
2023/09/09 05:24:54;;;;;;;;;;;16.90;99.90;;;;;;4875455;29;20052;-78
2023/09/09 05:27:19;;;;;;;2.50;2.30;;;17.00;99.90;;;;;;4874260;29;19938;-78
2023/09/09 05:29:46;;;;;;;2.90;2.58;;;17.00;99.90;;;;;;4875927;29;20504;-78
2023/09/09 05:32:12;;;;;;;2.88;2.42;;;17.10;99.90;;;;;;4873511;29;20080;-78
2023/09/09 05:34:38;;;;;;;2.63;2.42;;;17.10;99.90;;;;;;4874777;29;20056;-78
2023/09/09 05:37:04;;;;;;;;;;;17.20;99.90;;;;;;4874103;29;20049;-77
2023/09/09 05:39:29;;;;;;;2.70;2.30;;;17.20;99.90;;;;;;4874978;29;19920;-77
2023/09/09 05:41:55;;;;;;;2.63;2.40;;;17.30;99.90;;;;;;4858456;29;20412;-77
2023/09/09 05:44:21;;;;;;;2.53;2.30;;;17.30;99.90;;;;;;4859896;29;20088;-78
2023/09/09 05:46:46;;;;;;;2.92;2.50;;;17.40;99.90;;;;;;4859294;29;20061;-78
2023/09/09 05:49:12;;;;;;;;;;;17.50;99.90;;;;;;4878142;29;20052;-78
2023/09/09 05:51:37;;;;;;;2.25;1.83;;;17.50;99.90;;;;;;4862589;29;19952;-78
2023/09/09 05:54:03;;;;;;;;;;;17.60;99.90;;;;;;4863726;29;20096;-78
2023/09/09 05:56:29;;;;;;;2.97;2.67;;;17.60;99.90;;;;;;4863395;29;19927;-77
2023/09/09 05:58:54;;;;;;;;;;;17.70;99.90;;;;;;4861105;29;20068;-77
2023/09/09 06:01:21;;;;;;;3.65;2.40;;;17.70;99.90;;;;;;4861983;29;20471;-78
2023/09/09 06:03:46;;;;;;;2.55;2.20;;;17.80;99.90;;;;;;4861433;29;20049;-78
2023/09/09 06:06:12;;;;;;;;;;;17.90;99.90;;;;;;4878742;29;20056;-78
2023/09/09 06:08:38;;;;;;;2.60;2.20;;;18.00;99.90;;;;;;4878001;29;19940;-79
2023/09/09 06:11:04;;;;;;;;;;;18.00;99.90;;;;;;4872891;29;20100;-79
2023/09/09 06:13:29;;;;;;;2.55;2.25;;;18.10;99.90;;;;;;4879117;29;20080;-79
2023/09/09 06:15:55;;;;;;;;;;;18.20;99.90;;;;;;4861853;29;20037;-79
2023/09/09 06:18:21;;;;;;;3.05;2.50;;;18.30;99.90;;;;;;4878979;29;19924;-80
2023/09/09 06:20:47;;;;;;;;;;;18.30;99.90;;;;;;4878515;29;20048;-78
2023/09/09 06:23:14;;;;;;;3.20;2.90;;;18.40;99.90;;;;;;4878194;29;19931;-79
2023/09/09 06:25:39;;;;;;;3.38;3.08;;;18.50;99.90;;;;;;4878641;29;20044;-79
2023/09/09 06:28:05;;;;;;;;;;;18.50;99.90;;;;;;4879362;29;20049;-79
2023/09/09 06:30:31;;;;;;;3.10;2.80;;;18.50;99.90;;;;;;4845556;29;19928;-78
2023/09/09 06:32:57;;;;;;;3.45;2.90;;;18.60;99.90;;;;;;4870281;29;20034;-78
2023/09/09 06:35:23;;;;;;;;;;;18.70;99.90;;;;;;4877897;29;20481;-78
2023/09/09 06:37:48;;;;;;;4.45;3.90;;;18.80;99.90;;;;;;4862199;29;19947;-77
2023/09/09 06:40:14;;;;;;;;;;;18.90;99.90;;;;;;4861681;29;20477;-76
2023/09/09 06:42:40;;;;;;;4.20;3.80;;;19.20;99.90;;;;;;4876466;29;20379;-78
2023/09/09 06:45:06;;;;;;;4.72;4.10;;;19.60;99.90;;;;;;4863016;29;20481;-77
2023/09/09 06:47:31;;;;;;;;;;;20.00;99.90;;;;;;4877540;29;20061;-79
2023/09/09 06:49:57;;;;;;;5.10;4.50;;;20.30;99.90;;;;;;4873610;29;19920;-76
2023/09/09 06:52:23;;;;;;;5.00;4.35;;;20.70;99.90;;;;;;4848334;29;20640;-77
2023/09/09 06:54:48;;;;;;;;;;;20.90;99.90;;;;;;4856417;29;20065;-77
2023/09/09 06:57:14;;;;;;;5.30;4.80;;;21.10;99.90;;;;;;4857282;29;19923;-77
2023/09/09 06:59:39;;;;;;;5.60;4.88;;;21.30;99.90;;;;;;4876816;29;20056;-77
2023/09/09 07:02:06;;;;;;;4.75;4.25;;;21.50;99.90;;;;;;4877933;29;20051;-77
2023/09/09 07:04:32;;;;;;;6.47;5.88;;;21.60;99.90;;;;;;4877180;29;20822;-77
2023/09/09 07:06:58;;;;;;;5.63;5.05;;;21.60;99.90;;;;;;4877705;29;20049;-77
2023/09/09 07:09:23;;;;;;;6.55;5.47;;;21.70;99.90;;;;;;4875763;29;20033;-77
2023/09/09 07:11:49;;;;;;;7.13;6.43;;;21.80;99.90;;;;;;4877710;29;20084;-73
2023/09/09 07:14:15;;;;;;;5.82;4.72;;;21.80;99.90;;;;;;4877676;29;20045;-73
2023/09/09 07:16:40;;;;;;;4.95;4.45;;;22.00;99.90;;;;;;4861488;29;20045;-71
2023/09/09 07:19:06;;;;;;;6.90;6.20;;;22.20;55.40;;;;;;4877297;29;20112;-72
2023/09/09 07:21:32;;;;;;;5.75;5.25;;;22.20;99.90;;;;;;4878052;29;20057;-71
2023/09/09 07:23:57;;;;;;;5.90;4.82;;;22.20;99.90;;;;;;4876699;29;20063;-72
2023/09/09 07:26:23;;;;;;;5.85;5.25;;;22.30;99.90;;;;;;4877003;29;20044;-71
2023/09/09 07:28:49;;;;;;;5.78;5.18;;;22.40;99.90;;;;;;4876805;29;20064;-72
2023/09/09 07:31:15;;;;;;;6.25;5.65;;;22.50;99.90;;;;;;4874599;29;20040;-72
2023/09/09 07:33:40;;;;;;;7.55;6.85;;;22.60;48.10;;;;;;4873760;29;20045;-72
2023/09/09 07:36:06;;;;;;;6.28;5.68;;;22.50;1.00;;;;;;4876418;29;20045;-72
2023/09/09 07:38:32;;;;;;;5.88;5.28;;;22.60;99.90;;;;;;4877233;29;20060;-71
2023/09/09 07:40:58;;;;;;;5.57;5.07;;;22.70;99.90;;;;;;4858325;29;20124;-71
2023/09/09 07:43:24;;;;;;;6.10;5.35;;;22.70;1.00;;;;;;4876471;29;20092;-71
2023/09/09 07:45:51;;;;;;;7.10;6.40;;;22.80;1.00;;;;;;4875061;29;20466;-71
2023/09/09 07:48:21;;;;;;;6.70;6.10;;;22.70;1.00;;;;;;4876134;29;20045;-71
2023/09/09 07:50:54;;;;;;;6.45;5.85;;;22.70;99.90;;;;;;4876859;29;20045;-72
2023/09/09 07:53:21;;;;;;;5.95;5.45;;;22.80;91.60;;;;;;4861868;29;20101;-72
2023/09/09 07:55:48;;;;;;;6.15;5.55;;;22.90;1.00;;;;;;4876855;29;20493;-72
2023/09/09 07:58:14;;;;;;;4.93;4.53;;;23.00;99.90;;;;;;4877003;29;20049;-72
2023/09/09 08:00:41;;;;;;;4.90;4.47;;;23.10;1.00;;;;;;4876937;29;20092;-72
2023/09/09 08:03:07;;;;;;;4.95;4.47;;;23.30;99.90;;;;;;4861529;29;20445;-72
2023/09/09 08:05:33;;;;;;;4.90;4.45;;;23.60;99.90;;;;;;4877002;29;20057;-72
2023/09/09 08:07:59;;;;;;;4.20;3.80;;;23.70;99.90;;;;;;4861048;29;20059;-72
2023/09/09 08:10:24;;;;;;;4.60;4.20;;;23.80;1.00;;;;;;4876087;29;20041;-72
2023/09/09 08:12:50;;;;;;;4.85;4.30;;;24.00;58.90;;;;;;4876534;29;20049;-72
2023/09/09 08:15:16;;;;;;;4.88;4.30;;;24.20;99.90;;;;;;4855525;29;20056;-72
2023/09/09 08:17:43;;;;;;;4.60;4.18;;;24.30;99.90;;;;;;4876385;29;20057;-72
2023/09/09 08:20:09;;;;;;;4.78;4.28;;;24.30;99.90;;;;;;4861418;29;20088;-74
2023/09/09 08:22:34;;;;;;;4.65;3.92;;;24.50;99.90;;;;;;4860995;29;20151;-73
2023/09/09 08:25:01;;;;;;;6.93;6.03;;;24.50;19.10;;;;;;4877772;29;20056;-74
2023/09/09 08:27:27;;;;;;;9.65;7.00;;;24.50;99.90;;;;;;4860913;29;20390;-73
2023/09/09 08:29:53;;;;;;;5.55;5.05;;;24.20;99.90;;;;;;4860807;29;20045;-73
2023/09/09 08:32:19;;;;;;;5.15;4.65;;;24.30;99.90;;;;;;4860951;29;20120;-72
2023/09/09 08:34:45;;;;;;;4.47;4.07;;;24.50;99.90;;;;;;4876498;29;20041;-72
2023/09/09 08:37:11;;;;;;;5.05;4.55;;;24.70;1.00;;;;;;4876169;29;20516;-72
2023/09/09 08:39:38;;;;;;;4.40;4.00;;;24.70;99.90;;;;;;4876159;29;20047;-72
2023/09/09 08:42:41;;;;;;;6.88;6.28;;;24.80;1.00;;;;;;4860917;29;20053;-72
2023/09/09 08:45:09;;;;;;;7.05;6.35;;;24.70;48.20;;;;;;4876274;29;20441;-72
2023/09/09 08:47:36;;;;;;;6.05;5.45;;;24.60;85.60;;;;;;4875663;29;20053;-72
2023/09/09 08:50:04;;;;;;;6.53;5.93;;;24.70;99.90;;;;;;4869180;29;20053;-72
2023/09/09 08:52:30;;;;;;;7.25;6.55;;;24.70;99.90;;;;;;4871291;29;20747;-73
2023/09/09 08:54:56;;;;;;;7.13;6.43;;;24.70;22.30;;;;;;4875510;29;20063;-73
2023/09/09 08:57:25;;;;;;;4.80;4.32;;;24.70;91.10;;;;;;4870549;29;20055;-73
2023/09/09 08:59:52;;;;;;;6.60;5.88;;;24.90;99.90;;;;;;4875273;29;20056;-73
2023/09/09 09:02:18;;;;;;;6.40;5.68;;;24.90;99.90;;;;;;4873528;29;20049;-72
2023/09/09 09:04:45;;;;;;;5.32;4.40;;;25.00;22.50;;;;;;4875504;29;20056;-73
2023/09/09 09:07:12;;;;;;;4.90;4.40;;;25.20;1.00;;;;;;4840835;29;20065;-73
2023/09/09 09:09:38;;;;;;;5.38;4.88;;;25.40;99.90;;;;;;4868642;29;20401;-73
2023/09/09 09:12:04;;;;;;;4.93;4.53;;;25.40;99.90;;;;;;4873964;29;20049;-78
2023/09/09 09:14:30;;;;;;;4.20;3.80;;;25.50;99.90;;;;;;4858842;29;20076;-77
2023/09/09 09:16:56;;;;;;;4.43;4.03;;;25.80;99.90;;;;;;4875408;29;20077;-77
2023/09/09 09:19:30;;;;;;;4.50;3.97;;;25.90;70.60;;;;;;4857237;29;20053;-78
2023/09/09 09:21:56;;;;;;;4.28;3.47;;;26.00;99.90;;;;;;4855449;29;20132;-77
2023/09/09 09:24:25;;;;;;;4.05;3.65;;;26.30;38.20;;;;;;4873896;29;20040;-77
2023/09/09 09:26:51;;;;;;;4.60;3.80;;;26.40;99.90;;;;;;4875258;29;20045;-77
2023/09/09 09:29:16;;;;;;;5.05;4.55;;;26.50;99.90;;;;;;4873503;29;20045;-77
2023/09/09 09:31:53;;;;;;;5.47;4.90;;;26.30;99.90;;;;;;4859847;29;20128;-77
2023/09/09 09:34:21;;;;;;;6.70;6.00;;;26.30;99.90;;;;;;4874513;29;20088;-77
2023/09/09 09:36:47;;;;;;;5.55;4.95;;;26.20;99.90;;;;;;4858579;29;20044;-78
2023/09/09 09:39:15;;;;;;;6.57;5.85;;;26.20;1.00;;;;;;4875214;29;20057;-77
2023/09/09 09:41:43;;;;;;;5.05;4.55;;;26.20;1.00;;;;;;4874896;29;20067;-77
2023/09/09 09:44:19;;;;;;;5.25;4.68;;;26.20;67.50;;;;;;4856540;29;20045;-77
2023/09/09 09:47:05;;;;;;;4.75;4.30;;;26.30;32.40;;;;;;4848127;29;20048;-77
2023/09/09 09:49:39;;;;;;;6.05;5.45;;;26.40;36.30;;;;;;4870130;29;20085;-80
2023/09/09 09:52:06;;;;;;;6.65;5.95;;;26.50;1.00;;;;;;4876010;29;20072;-77
2023/09/09 09:54:33;;;;;;;6.03;5.43;;;26.50;99.90;;;;;;4875403;29;20049;-77
2023/09/09 09:57:02;;;;;;;8.80;7.90;;;26.50;30.00;;;;;;4871023;29;20391;-77
2023/09/09 09:59:33;;;;;;;9.70;8.80;;;26.30;99.90;;;;;;4874525;29;20109;-77
2023/09/09 10:02:00;;;;;;;7.22;6.53;;;26.30;99.90;;;;;;4873705;29;20037;-78
2023/09/09 10:04:28;;;;;;;9.00;6.85;;;26.30;99.90;;;;;;4875629;29;20385;-78
2023/09/09 10:07:00;;;;;;;6.90;6.28;;;26.30;99.90;;;;;;4875206;29;20132;-78
2023/09/09 10:09:30;;;;;;;4.90;4.40;;;26.50;99.90;;;;;;4875195;29;20077;-78
2023/09/09 10:12:14;;;;;;;11.00;9.90;;;26.60;99.90;;;;;;4874761;29;20492;-78
2023/09/09 10:14:41;;;;;;;6.43;5.82;;;26.60;59.60;;;;;;4874478;29;20102;-78
2023/09/09 10:17:08;;;;;;;10.30;9.30;;;26.60;18.10;;;;;;4875658;29;20761;-78
2023/09/09 10:19:36;;;;;;;9.35;7.82;;;26.60;92.00;;;;;;4872992;29;20082;-78
2023/09/09 10:22:04;;;;;;;6.07;5.47;;;26.60;99.90;;;;;;4860081;29;20044;-78
2023/09/09 10:24:32;;;;;;;13.88;11.75;;;26.80;99.90;;;;;;4874899;29;20073;-78
2023/09/09 10:27:02;;;;;;;10.05;9.05;;;26.60;1.00;;;;;;4874689;29;20053;-78
2023/09/09 10:29:30;;;;;;;10.90;9.68;;;26.60;99.90;;;;;;4858775;29;20109;-77
2023/09/09 10:32:00;;;;;;;8.07;7.13;;;26.60;99.90;;;;;;4859162;29;20056;-77
2023/09/09 10:34:28;;;;;;;9.00;7.75;;;26.70;99.90;;;;;;4875407;29;20053;-78
2023/09/09 10:36:57;;;;;;;6.82;6.13;;;26.80;57.90;;;;;;4878540;29;20531;-78
2023/09/09 10:39:24;;;;;;;11.88;9.35;;;27.00;70.40;;;;;;4861288;29;20101;-78
2023/09/09 10:41:50;;;;;;;4.63;4.22;;;27.00;99.90;;;;;;4878355;29;20049;-78
2023/09/09 10:44:16;;;;;;;7.22;6.53;;;27.40;99.90;;;;;;4875821;29;20052;-78
2023/09/09 10:46:42;;;;;;;7.75;6.68;;;27.50;99.90;;;;;;4877233;29;20056;-78
2023/09/09 10:49:08;;;;;;;8.70;7.80;;;27.50;99.90;;;;;;4875353;29;20053;-78
2023/09/09 10:51:55;;;;;;;5.03;4.53;;;27.40;99.90;;;;;;4862562;29;20057;-78
2023/09/09 10:54:23;;;;;;;5.95;5.35;;;27.60;97.60;;;;;;4872910;29;20052;-78
2023/09/09 10:56:55;;;;;;;7.05;6.35;;;27.70;99.90;;;;;;4877925;29;20054;-78
2023/09/09 10:59:26;;;;;;;4.38;3.80;;;27.70;1.00;;;;;;4877832;29;20049;-78
2023/09/09 11:02:14;;;;;;;7.50;6.72;;;27.90;1.00;;;;;;4844608;29;20037;-78
2023/09/09 11:04:41;;;;;;;4.95;4.20;;;27.80;99.90;;;;;;4878227;29;20057;-78
2023/09/09 11:07:10;;;;;;;6.18;4.90;;;27.90;99.90;;;;;;4878237;29;20072;-78
2023/09/09 11:09:37;;;;;;;5.68;4.57;;;27.90;99.90;;;;;;4877531;29;20065;-78
2023/09/09 11:12:13;;;;;;;5.78;5.18;;;27.90;99.90;;;;;;4862430;29;20449;-77
2023/09/09 11:14:45;;;;;;;6.15;4.75;;;27.70;99.90;;;;;;4877643;29;20056;-77
2023/09/09 11:17:12;;;;;;;4.25;3.80;;;27.80;1.00;;;;;;4861855;29;20077;-77
2023/09/09 11:19:39;;;;;;;5.80;5.18;;;28.00;1.00;;;;;;4877590;29;20401;-77
2023/09/09 11:22:07;;;;;;;6.38;5.60;;;28.10;99.90;;;;;;4862457;29;20079;-77
2023/09/09 11:24:34;;;;;;;5.18;4.68;;;28.00;1.00;;;;;;4877649;29;20044;-83
2023/09/09 11:27:00;;;;;;;4.88;4.30;;;28.20;99.90;;;;;;4873438;29;20060;-78
2023/09/09 11:29:25;;;;;;;7.35;6.10;;;28.40;99.90;;;;;;4877741;29;20087;-78
2023/09/09 11:31:52;;;;;;;5.53;5.03;;;28.10;93.20;;;;;;4877430;29;20076;-78
2023/09/09 11:34:26;;;;;;;5.80;5.20;;;28.20;74.50;;;;;;4877760;29;20053;-78
2023/09/09 11:36:53;;;;;;;6.32;5.63;;;28.20;36.80;;;;;;4877457;29;20059;-77
2023/09/09 11:39:19;;;;;;;5.47;4.95;;;28.30;13.30;;;;;;4877280;29;20043;-78
2023/09/09 11:41:45;;;;;;;4.75;4.13;;;28.30;2.80;;;;;;4861839;29;20045;-78
2023/09/09 11:44:10;;;;;;;6.55;5.88;;;28.50;29.50;;;;;;4876717;29;20091;-78
2023/09/09 11:46:43;;;;;;;6.47;5.88;;;28.40;1.00;;;;;;4877021;29;20377;-78
2023/09/09 11:49:11;;;;;;;6.13;5.53;;;28.20;1.00;;;;;;4877082;29;20049;-78
2023/09/09 11:51:37;;;;;;;3.67;3.30;;;28.20;1.00;;;;;;4876992;29;20083;-78
2023/09/09 11:54:04;;;;;;;7.60;5.45;;;28.60;24.90;;;;;;4877014;29;20045;-78
2023/09/09 11:56:32;;;;;;;4.57;3.60;;;28.50;15.00;;;;;;4875167;29;20100;-78
2023/09/09 11:58:58;;;;;;;7.90;7.15;;;28.80;1.00;;;;;;4872339;29;20063;-78
2023/09/09 12:01:24;;;;;;;6.70;6.00;;;28.60;99.90;;;;;;4874468;29;20053;-78
2023/09/09 12:03:50;;;;;;;3.30;3.00;;;28.70;99.90;;;;;;4860251;29;20060;-78
2023/09/09 12:06:19;;;;;;;3.70;3.40;;;29.00;1.00;;;;;;4859576;29;20048;-78
2023/09/09 12:08:47;;;;;;;4.90;3.83;;;29.30;99.90;;;;;;4871499;29;20049;-79
2023/09/09 12:11:16;;;;;;;6.43;5.75;;;29.30;99.90;;;;;;4853014;29;20052;-78
2023/09/09 12:13:43;;;;;;;3.95;3.55;;;29.00;99.90;;;;;;4876028;29;20119;-78
2023/09/09 12:16:09;;;;;;;6.43;5.78;;;29.20;99.90;;;;;;4864587;29;20060;-79
2023/09/09 12:18:36;;;;;;;6.80;5.70;;;29.10;99.90;;;;;;4857904;29;20065;-78
2023/09/09 12:21:06;;;;;;;5.03;4.20;;;28.90;99.90;;;;;;4870868;29;20049;-78
2023/09/09 12:23:34;;;;;;;6.15;5.47;;;28.90;99.90;;;;;;4875420;29;20085;-78
2023/09/09 12:26:18;;;;;;;4.20;3.08;;;28.90;99.90;;;;;;4876985;29;20430;-79
2023/09/09 12:29:05;;;;;;;4.43;4.03;;;29.10;99.90;;;;;;4874815;29;20045;-78
2023/09/09 12:31:33;;;;;;;4.72;4.20;;;29.10;99.90;;;;;;4872525;29;20066;-78
2023/09/09 12:33:59;;;;;;;4.07;3.20;;;29.00;99.90;;;;;;4875304;29;20040;-78
2023/09/09 12:36:25;;;;;;;2.40;2.20;;;29.10;99.90;;;;;;4866811;29;20041;-78
2023/09/09 12:38:51;;;;;;;3.20;2.90;;;29.50;99.90;;;;;;4876479;29;20401;-78
2023/09/09 12:41:18;;;;;;;4.40;3.80;;;29.60;99.90;;;;;;4862806;29;20493;-78
2023/09/09 12:43:50;;;;;;;5.13;4.63;;;29.50;17.70;;;;;;4860617;29;20524;-78
2023/09/09 12:46:18;;;;;;;3.97;3.58;;;29.20;23.90;;;;;;4860324;29;20104;-78
2023/09/09 12:48:58;;;;;;;6.05;4.13;;;29.20;61.50;;;;;;4871137;29;20104;-78
2023/09/09 12:51:28;;;;;;;3.95;3.60;;;29.00;73.00;;;;;;4871492;29;20045;-78
2023/09/09 12:53:55;;;;;;;4.60;3.10;;;29.00;99.90;;;;;;4869494;29;20052;-78
2023/09/09 12:56:20;;;;;;;3.25;2.83;;;29.20;99.90;;;;;;4856772;29;20158;-78
2023/09/09 12:58:47;;;;;;;3.35;3.05;;;29.40;99.90;;;;;;4871617;29;20346;-78
2023/09/09 13:01:14;;;;;;;3.45;2.85;;;29.60;25.40;;;;;;4859245;29;20045;-78